sensor_id;sensor_type;location;lat;lon;timestamp;P1;durP1;ratioP1;P2;durP2;ratioP2
34359;SDS011;20624;55.870;26.506;2023-01-23T00:01:38;7.20;;;0.98;;
34359;SDS011;20624;55.870;26.506;2023-01-23T00:04:08;1.75;;;0.35;;
34359;SDS011;20624;55.870;26.506;2023-01-23T00:06:41;9.27;;;1.42;;
34359;SDS011;20624;55.870;26.506;2023-01-23T00:11:39;8.25;;;1.13;;
34359;SDS011;20624;55.870;26.506;2023-01-23T00:14:08;3.15;;;0.55;;
34359;SDS011;20624;55.870;26.506;2023-01-23T00:16:38;6.15;;;1.15;;
34359;SDS011;20624;55.870;26.506;2023-01-23T00:19:09;1.65;;;0.35;;
34359;SDS011;20624;55.870;26.506;2023-01-23T00:21:36;4.15;;;0.75;;
34359;SDS011;20624;55.870;26.506;2023-01-23T00:24:04;4.47;;;0.60;;
34359;SDS011;20624;55.870;26.506;2023-01-23T00:26:33;8.05;;;1.08;;
34359;SDS011;20624;55.870;26.506;2023-01-23T00:29:08;6.63;;;0.95;;
34359;SDS011;20624;55.870;26.506;2023-01-23T00:31:36;7.32;;;1.10;;
34359;SDS011;20624;55.870;26.506;2023-01-23T00:34:06;2.65;;;0.47;;
34359;SDS011;20624;55.870;26.506;2023-01-23T00:36:38;9.05;;;1.25;;
34359;SDS011;20624;55.870;26.506;2023-01-23T00:39:11;1.83;;;0.30;;
34359;SDS011;20624;55.870;26.506;2023-01-23T00:41:43;12.32;;;1.77;;
34359;SDS011;20624;55.870;26.506;2023-01-23T00:44:15;2.20;;;0.40;;
34359;SDS011;20624;55.870;26.506;2023-01-23T00:46:45;7.80;;;1.15;;
34359;SDS011;20624;55.870;26.506;2023-01-23T00:51:43;5.53;;;0.82;;
34359;SDS011;20624;55.870;26.506;2023-01-23T00:54:11;2.25;;;0.40;;
34359;SDS011;20624;55.870;26.506;2023-01-23T00:56:38;5.72;;;0.88;;
34359;SDS011;20624;55.870;26.506;2023-01-23T00:59:06;2.00;;;0.38;;
34359;SDS011;20624;55.870;26.506;2023-01-23T01:01:34;4.18;;;0.68;;
34359;SDS011;20624;55.870;26.506;2023-01-23T01:04:01;1.80;;;0.35;;
34359;SDS011;20624;55.870;26.506;2023-01-23T01:06:29;4.05;;;0.65;;
34359;SDS011;20624;55.870;26.506;2023-01-23T01:08:59;0.75;;;0.20;;
34359;SDS011;20624;55.870;26.506;2023-01-23T01:13:55;1.17;;;0.40;;
34359;SDS011;20624;55.870;26.506;2023-01-23T01:16:22;8.10;;;1.15;;
34359;SDS011;20624;55.870;26.506;2023-01-23T01:18:50;3.45;;;0.52;;
34359;SDS011;20624;55.870;26.506;2023-01-23T01:21:20;4.18;;;0.65;;
34359;SDS011;20624;55.870;26.506;2023-01-23T01:23:50;2.40;;;0.40;;
34359;SDS011;20624;55.870;26.506;2023-01-23T01:26:22;7.43;;;1.08;;
34359;SDS011;20624;55.870;26.506;2023-01-23T01:28:51;3.53;;;0.60;;
34359;SDS011;20624;55.870;26.506;2023-01-23T01:31:19;5.50;;;0.68;;
34359;SDS011;20624;55.870;26.506;2023-01-23T01:33:49;3.55;;;0.60;;
34359;SDS011;20624;55.870;26.506;2023-01-23T01:36:19;7.63;;;0.95;;
34359;SDS011;20624;55.870;26.506;2023-01-23T01:38:51;2.33;;;0.40;;
34359;SDS011;20624;55.870;26.506;2023-01-23T01:41:19;14.55;;;2.05;;
34359;SDS011;20624;55.870;26.506;2023-01-23T01:43:48;3.15;;;0.57;;
34359;SDS011;20624;55.870;26.506;2023-01-23T01:46:22;7.57;;;1.20;;
34359;SDS011;20624;55.870;26.506;2023-01-23T01:49:08;2.60;;;0.40;;
34359;SDS011;20624;55.870;26.506;2023-01-23T01:59:27;2.35;;;0.50;;
34359;SDS011;20624;55.870;26.506;2023-01-23T02:01:57;3.92;;;0.82;;
34359;SDS011;20624;55.870;26.506;2023-01-23T02:04:34;4.30;;;0.73;;
34359;SDS011;20624;55.870;26.506;2023-01-23T02:07:04;4.43;;;0.73;;
34359;SDS011;20624;55.870;26.506;2023-01-23T02:09:36;3.35;;;0.60;;
34359;SDS011;20624;55.870;26.506;2023-01-23T02:12:05;2.03;;;0.45;;
34359;SDS011;20624;55.870;26.506;2023-01-23T02:14:33;6.18;;;1.00;;
34359;SDS011;20624;55.870;26.506;2023-01-23T02:17:00;1.45;;;0.40;;
34359;SDS011;20624;55.870;26.506;2023-01-23T02:28:09;5.45;;;1.00;;
34359;SDS011;20624;55.870;26.506;2023-01-23T02:30:41;4.85;;;0.80;;
34359;SDS011;20624;55.870;26.506;2023-01-23T02:35:47;2.60;;;0.47;;
34359;SDS011;20624;55.870;26.506;2023-01-23T02:38:16;4.07;;;0.68;;
34359;SDS011;20624;55.870;26.506;2023-01-23T02:40:47;1.63;;;0.30;;
34359;SDS011;20624;55.870;26.506;2023-01-23T02:43:19;4.63;;;0.68;;
34359;SDS011;20624;55.870;26.506;2023-01-23T02:45:52;2.33;;;0.38;;
34359;SDS011;20624;55.870;26.506;2023-01-23T02:48:21;2.53;;;0.43;;
34359;SDS011;20624;55.870;26.506;2023-01-23T02:50:48;2.65;;;0.40;;
34359;SDS011;20624;55.870;26.506;2023-01-23T02:53:19;3.33;;;0.50;;
34359;SDS011;20624;55.870;26.506;2023-01-23T02:55:47;2.00;;;0.40;;
34359;SDS011;20624;55.870;26.506;2023-01-23T02:58:14;2.40;;;0.30;;
34359;SDS011;20624;55.870;26.506;2023-01-23T03:01:00;2.80;;;0.50;;
34359;SDS011;20624;55.870;26.506;2023-01-23T03:03:28;5.68;;;0.80;;
34359;SDS011;20624;55.870;26.506;2023-01-23T03:05:56;1.80;;;0.50;;
34359;SDS011;20624;55.870;26.506;2023-01-23T03:08:29;4.03;;;0.60;;
34359;SDS011;20624;55.870;26.506;2023-01-23T03:10:59;1.00;;;0.22;;
34359;SDS011;20624;55.870;26.506;2023-01-23T03:13:30;3.65;;;0.70;;
34359;SDS011;20624;55.870;26.506;2023-01-23T03:15:58;2.35;;;0.45;;
34359;SDS011;20624;55.870;26.506;2023-01-23T03:18:26;3.75;;;0.60;;
34359;SDS011;20624;55.870;26.506;2023-01-23T03:21:00;4.78;;;0.73;;
34359;SDS011;20624;55.870;26.506;2023-01-23T03:23:31;5.18;;;0.90;;
34359;SDS011;20624;55.870;26.506;2023-01-23T03:25:59;2.53;;;0.68;;
34359;SDS011;20624;55.870;26.506;2023-01-23T03:28:27;3.17;;;0.50;;
34359;SDS011;20624;55.870;26.506;2023-01-23T03:31:16;1.95;;;0.82;;
34359;SDS011;20624;55.870;26.506;2023-01-23T03:33:44;2.88;;;0.93;;
34359;SDS011;20624;55.870;26.506;2023-01-23T03:36:14;5.10;;;0.77;;
34359;SDS011;20624;55.870;26.506;2023-01-23T03:38:42;3.28;;;0.63;;
34359;SDS011;20624;55.870;26.506;2023-01-23T03:41:29;6.57;;;1.13;;
34359;SDS011;20624;55.870;26.506;2023-01-23T03:44:00;2.20;;;0.45;;
34359;SDS011;20624;55.870;26.506;2023-01-23T03:46:30;7.90;;;1.15;;
34359;SDS011;20624;55.870;26.506;2023-01-23T03:48:58;1.70;;;0.55;;
34359;SDS011;20624;55.870;26.506;2023-01-23T03:51:25;10.60;;;1.58;;
34359;SDS011;20624;55.870;26.506;2023-01-23T03:53:56;3.47;;;0.65;;
34359;SDS011;20624;55.870;26.506;2023-01-23T03:56:26;6.60;;;1.05;;
34359;SDS011;20624;55.870;26.506;2023-01-23T03:58:54;4.28;;;0.60;;
34359;SDS011;20624;55.870;26.506;2023-01-23T04:01:22;7.53;;;1.10;;
34359;SDS011;20624;55.870;26.506;2023-01-23T04:03:49;2.58;;;0.65;;
34359;SDS011;20624;55.870;26.506;2023-01-23T04:06:17;13.15;;;9.27;;
34359;SDS011;20624;55.870;26.506;2023-01-23T04:08:45;14.60;;;2.83;;
34359;SDS011;20624;55.870;26.506;2023-01-23T04:11:13;13.88;;;4.47;;
34359;SDS011;20624;55.870;26.506;2023-01-23T04:13:40;5.28;;;1.08;;
34359;SDS011;20624;55.870;26.506;2023-01-23T04:16:08;17.23;;;2.38;;
34359;SDS011;20624;55.870;26.506;2023-01-23T04:18:36;10.43;;;1.50;;
34359;SDS011;20624;55.870;26.506;2023-01-23T04:21:03;11.50;;;4.82;;
34359;SDS011;20624;55.870;26.506;2023-01-23T04:23:34;7.57;;;2.08;;
34359;SDS011;20624;55.870;26.506;2023-01-23T04:26:02;8.52;;;4.40;;
34359;SDS011;20624;55.870;26.506;2023-01-23T04:28:30;21.95;;;19.92;;
34359;SDS011;20624;55.870;26.506;2023-01-23T04:31:04;15.10;;;13.70;;
34359;SDS011;20624;55.870;26.506;2023-01-23T04:33:31;9.50;;;7.03;;
34359;SDS011;20624;55.870;26.506;2023-01-23T04:36:03;11.32;;;8.45;;
34359;SDS011;20624;55.870;26.506;2023-01-23T04:38:36;10.98;;;7.22;;
34359;SDS011;20624;55.870;26.506;2023-01-23T04:41:06;14.00;;;4.97;;
34359;SDS011;20624;55.870;26.506;2023-01-23T04:43:34;8.18;;;4.68;;
34359;SDS011;20624;55.870;26.506;2023-01-23T04:46:01;17.35;;;16.05;;
34359;SDS011;20624;55.870;26.506;2023-01-23T04:48:31;23.60;;;11.30;;
34359;SDS011;20624;55.870;26.506;2023-01-23T04:50:59;14.43;;;6.93;;
34359;SDS011;20624;55.870;26.506;2023-01-23T04:53:26;35.63;;;29.20;;
34359;SDS011;20624;55.870;26.506;2023-01-23T04:56:02;18.35;;;2.80;;
34359;SDS011;20624;55.870;26.506;2023-01-23T04:58:30;6.15;;;5.20;;
34359;SDS011;20624;55.870;26.506;2023-01-23T05:01:03;8.85;;;3.05;;
34359;SDS011;20624;55.870;26.506;2023-01-23T05:03:32;18.95;;;17.33;;
34359;SDS011;20624;55.870;26.506;2023-01-23T05:06:00;13.20;;;12.25;;
34359;SDS011;20624;55.870;26.506;2023-01-23T05:08:31;11.30;;;4.55;;
34359;SDS011;20624;55.870;26.506;2023-01-23T05:10:59;17.77;;;16.08;;
34359;SDS011;20624;55.870;26.506;2023-01-23T05:13:27;31.85;;;28.70;;
34359;SDS011;20624;55.870;26.506;2023-01-23T05:15:57;45.28;;;36.78;;
34359;SDS011;20624;55.870;26.506;2023-01-23T05:18:24;65.22;;;45.72;;
34359;SDS011;20624;55.870;26.506;2023-01-23T05:20:52;53.53;;;40.30;;
34359;SDS011;20624;55.870;26.506;2023-01-23T05:23:20;49.08;;;37.70;;
34359;SDS011;20624;55.870;26.506;2023-01-23T05:25:52;71.07;;;48.17;;
34359;SDS011;20624;55.870;26.506;2023-01-23T05:28:19;78.43;;;49.03;;
34359;SDS011;20624;55.870;26.506;2023-01-23T05:30:47;70.95;;;47.00;;
34359;SDS011;20624;55.870;26.506;2023-01-23T05:33:17;66.90;;;45.35;;
34359;SDS011;20624;55.870;26.506;2023-01-23T05:35:44;61.50;;;43.75;;
34359;SDS011;20624;55.870;26.506;2023-01-23T05:38:12;42.85;;;36.80;;
34359;SDS011;20624;55.870;26.506;2023-01-23T05:40:40;48.78;;;38.40;;
34359;SDS011;20624;55.870;26.506;2023-01-23T05:43:12;60.38;;;44.25;;
34359;SDS011;20624;55.870;26.506;2023-01-23T05:45:44;32.60;;;29.42;;
34359;SDS011;20624;55.870;26.506;2023-01-23T05:48:17;26.95;;;22.30;;
34359;SDS011;20624;55.870;26.506;2023-01-23T05:50:44;52.63;;;34.40;;
34359;SDS011;20624;55.870;26.506;2023-01-23T05:53:12;19.52;;;17.52;;
34359;SDS011;20624;55.870;26.506;2023-01-23T05:55:39;38.67;;;28.10;;
34359;SDS011;20624;55.870;26.506;2023-01-23T05:58:07;41.22;;;29.40;;
34359;SDS011;20624;55.870;26.506;2023-01-23T06:00:34;12.23;;;7.93;;
34359;SDS011;20624;55.870;26.506;2023-01-23T06:03:02;30.30;;;20.05;;
34359;SDS011;20624;55.870;26.506;2023-01-23T06:05:30;38.65;;;27.63;;
34359;SDS011;20624;55.870;26.506;2023-01-23T06:08:02;67.15;;;42.03;;
34359;SDS011;20624;55.870;26.506;2023-01-23T06:10:29;83.13;;;51.97;;
34359;SDS011;20624;55.870;26.506;2023-01-23T06:13:02;70.80;;;46.35;;
34359;SDS011;20624;55.870;26.506;2023-01-23T06:15:32;48.83;;;35.30;;
34359;SDS011;20624;55.870;26.506;2023-01-23T06:17:59;74.65;;;43.88;;
34359;SDS011;20624;55.870;26.506;2023-01-23T06:20:33;70.70;;;42.15;;
34359;SDS011;20624;55.870;26.506;2023-01-23T06:23:02;85.20;;;36.58;;
34359;SDS011;20624;55.870;26.506;2023-01-23T06:25:30;76.65;;;43.63;;
34359;SDS011;20624;55.870;26.506;2023-01-23T06:27:57;51.58;;;40.13;;
34359;SDS011;20624;55.870;26.506;2023-01-23T06:30:25;73.97;;;37.63;;
34359;SDS011;20624;55.870;26.506;2023-01-23T06:32:52;87.07;;;44.60;;
34359;SDS011;20624;55.870;26.506;2023-01-23T06:35:20;105.90;;;57.30;;
34359;SDS011;20624;55.870;26.506;2023-01-23T06:37:48;86.03;;;49.30;;
34359;SDS011;20624;55.870;26.506;2023-01-23T06:40:21;125.35;;;54.70;;
34359;SDS011;20624;55.870;26.506;2023-01-23T06:42:48;129.80;;;55.78;;
34359;SDS011;20624;55.870;26.506;2023-01-23T06:45:22;113.63;;;52.50;;
34359;SDS011;20624;55.870;26.506;2023-01-23T06:50:18;114.75;;;60.58;;
34359;SDS011;20624;55.870;26.506;2023-01-23T06:52:46;122.38;;;58.58;;
34359;SDS011;20624;55.870;26.506;2023-01-23T06:55:13;109.03;;;51.83;;
34359;SDS011;20624;55.870;26.506;2023-01-23T06:57:42;127.85;;;55.53;;
34359;SDS011;20624;55.870;26.506;2023-01-23T07:00:10;111.28;;;53.40;;
34359;SDS011;20624;55.870;26.506;2023-01-23T07:02:38;98.70;;;50.25;;
34359;SDS011;20624;55.870;26.506;2023-01-23T07:05:10;153.50;;;61.47;;
34359;SDS011;20624;55.870;26.506;2023-01-23T07:07:40;110.78;;;51.92;;
34359;SDS011;20624;55.870;26.506;2023-01-23T07:12:44;118.72;;;60.72;;
34359;SDS011;20624;55.870;26.506;2023-01-23T07:15:11;113.93;;;55.60;;
34359;SDS011;20624;55.870;26.506;2023-01-23T07:17:42;164.38;;;69.68;;
34359;SDS011;20624;55.870;26.506;2023-01-23T07:20:13;143.93;;;62.78;;
34359;SDS011;20624;55.870;26.506;2023-01-23T07:22:41;144.18;;;59.80;;
34359;SDS011;20624;55.870;26.506;2023-01-23T07:25:08;127.63;;;60.92;;
34359;SDS011;20624;55.870;26.506;2023-01-23T07:27:36;161.05;;;71.80;;
34359;SDS011;20624;55.870;26.506;2023-01-23T07:30:03;118.05;;;56.20;;
34359;SDS011;20624;55.870;26.506;2023-01-23T07:32:31;162.10;;;63.55;;
34359;SDS011;20624;55.870;26.506;2023-01-23T07:35:00;205.23;;;76.05;;
34359;SDS011;20624;55.870;26.506;2023-01-23T07:37:27;166.18;;;70.68;;
34359;SDS011;20624;55.870;26.506;2023-01-23T07:39:57;129.52;;;63.40;;
34359;SDS011;20624;55.870;26.506;2023-01-23T07:42:25;185.00;;;78.15;;
34359;SDS011;20624;55.870;26.506;2023-01-23T07:44:52;171.23;;;72.68;;
34359;SDS011;20624;55.870;26.506;2023-01-23T07:47:22;167.73;;;76.32;;
34359;SDS011;20624;55.870;26.506;2023-01-23T07:49:52;179.25;;;82.00;;
34359;SDS011;20624;55.870;26.506;2023-01-23T07:52:19;87.88;;;33.55;;
34359;SDS011;20624;55.870;26.506;2023-01-23T07:54:52;164.15;;;62.85;;
34359;SDS011;20624;55.870;26.506;2023-01-23T07:57:20;187.98;;;84.35;;
34359;SDS011;20624;55.870;26.506;2023-01-23T07:59:51;197.98;;;85.00;;
34359;SDS011;20624;55.870;26.506;2023-01-23T08:02:19;232.25;;;106.70;;
34359;SDS011;20624;55.870;26.506;2023-01-23T08:04:49;187.50;;;81.38;;
34359;SDS011;20624;55.870;26.506;2023-01-23T08:07:32;93.75;;;44.53;;
34359;SDS011;20624;55.870;26.506;2023-01-23T08:10:00;64.20;;;26.63;;
34359;SDS011;20624;55.870;26.506;2023-01-23T08:12:29;72.63;;;12.45;;
34359;SDS011;20624;55.870;26.506;2023-01-23T08:14:56;55.35;;;10.95;;
34359;SDS011;20624;55.870;26.506;2023-01-23T08:17:24;51.53;;;15.50;;
34359;SDS011;20624;55.870;26.506;2023-01-23T08:19:51;65.18;;;32.70;;
34359;SDS011;20624;55.870;26.506;2023-01-23T08:22:18;59.22;;;8.77;;
34359;SDS011;20624;55.870;26.506;2023-01-23T08:24:46;104.40;;;49.10;;
34359;SDS011;20624;55.870;26.506;2023-01-23T08:27:13;127.05;;;52.55;;
34359;SDS011;20624;55.870;26.506;2023-01-23T08:29:41;140.10;;;64.97;;
34359;SDS011;20624;55.870;26.506;2023-01-23T08:32:11;121.38;;;52.00;;
34359;SDS011;20624;55.870;26.506;2023-01-23T08:34:41;177.30;;;69.53;;
34359;SDS011;20624;55.870;26.506;2023-01-23T08:37:14;144.50;;;67.18;;
34359;SDS011;20624;55.870;26.506;2023-01-23T08:39:43;151.10;;;54.00;;
34359;SDS011;20624;55.870;26.506;2023-01-23T08:42:14;116.90;;;58.33;;
34359;SDS011;20624;55.870;26.506;2023-01-23T08:44:41;191.07;;;88.97;;
34359;SDS011;20624;55.870;26.506;2023-01-23T08:47:09;116.80;;;53.60;;
34359;SDS011;20624;55.870;26.506;2023-01-23T08:49:37;137.02;;;55.83;;
34359;SDS011;20624;55.870;26.506;2023-01-23T08:52:04;172.05;;;73.88;;
34359;SDS011;20624;55.870;26.506;2023-01-23T08:54:35;187.80;;;77.53;;
34359;SDS011;20624;55.870;26.506;2023-01-23T08:57:06;185.25;;;77.90;;
34359;SDS011;20624;55.870;26.506;2023-01-23T08:59:34;177.60;;;79.65;;
34359;SDS011;20624;55.870;26.506;2023-01-23T09:02:01;178.35;;;74.38;;
34359;SDS011;20624;55.870;26.506;2023-01-23T09:04:32;182.82;;;79.55;;
34359;SDS011;20624;55.870;26.506;2023-01-23T09:07:00;83.82;;;38.10;;
34359;SDS011;20624;55.870;26.506;2023-01-23T09:09:32;154.73;;;67.32;;
34359;SDS011;20624;55.870;26.506;2023-01-23T09:12:06;192.95;;;85.50;;
34359;SDS011;20624;55.870;26.506;2023-01-23T09:14:34;176.40;;;77.20;;
34359;SDS011;20624;55.870;26.506;2023-01-23T09:17:04;120.60;;;50.63;;
34359;SDS011;20624;55.870;26.506;2023-01-23T09:19:32;78.63;;;10.45;;
34359;SDS011;20624;55.870;26.506;2023-01-23T09:22:00;54.53;;;7.30;;
34359;SDS011;20624;55.870;26.506;2023-01-23T09:24:35;56.22;;;7.45;;
34359;SDS011;20624;55.870;26.506;2023-01-23T09:27:03;30.13;;;4.32;;
34359;SDS011;20624;55.870;26.506;2023-01-23T09:29:30;54.53;;;7.40;;
34359;SDS011;20624;55.870;26.506;2023-01-23T09:32:02;56.58;;;8.13;;
34359;SDS011;20624;55.870;26.506;2023-01-23T09:34:29;72.63;;;11.00;;
34359;SDS011;20624;55.870;26.506;2023-01-23T09:36:59;68.38;;;22.33;;
34359;SDS011;20624;55.870;26.506;2023-01-23T09:39:27;81.25;;;11.82;;
34359;SDS011;20624;55.870;26.506;2023-01-23T09:41:54;68.32;;;24.08;;
34359;SDS011;20624;55.870;26.506;2023-01-23T09:44:32;106.85;;;35.03;;
34359;SDS011;20624;55.870;26.506;2023-01-23T09:47:54;72.30;;;10.23;;
34359;SDS011;20624;55.870;26.506;2023-01-23T09:50:05;99.88;;;13.60;;
34359;SDS011;20624;55.870;26.506;2023-01-23T09:52:47;91.30;;;12.43;;
34359;SDS011;20624;55.870;26.506;2023-01-23T09:55:31;55.15;;;8.18;;
34359;SDS011;20624;55.870;26.506;2023-01-23T09:58:14;112.07;;;15.50;;
34359;SDS011;20624;55.870;26.506;2023-01-23T10:00:53;65.05;;;9.05;;
34359;SDS011;20624;55.870;26.506;2023-01-23T10:03:27;54.17;;;7.78;;
34359;SDS011;20624;55.870;26.506;2023-01-23T10:11:55;42.53;;;7.60;;
34359;SDS011;20624;55.870;26.506;2023-01-23T10:14:51;87.00;;;12.02;;
34359;SDS011;20624;55.870;26.506;2023-01-23T10:17:52;83.60;;;11.50;;
34359;SDS011;20624;55.870;26.506;2023-01-23T10:23:17;80.22;;;10.38;;
34359;SDS011;20624;55.870;26.506;2023-01-23T10:26:00;60.92;;;8.18;;
34359;SDS011;20624;55.870;26.506;2023-01-23T10:28:37;108.10;;;14.27;;
34359;SDS011;20624;55.870;26.506;2023-01-23T10:31:10;74.22;;;9.95;;
34359;SDS011;20624;55.870;26.506;2023-01-23T10:33:54;65.38;;;8.85;;
34359;SDS011;20624;55.870;26.506;2023-01-23T10:39:26;93.93;;;23.38;;
34359;SDS011;20624;55.870;26.506;2023-01-23T10:41:56;126.35;;;25.70;;
34359;SDS011;20624;55.870;26.506;2023-01-23T10:44:28;117.68;;;38.97;;
34359;SDS011;20624;55.870;26.506;2023-01-23T10:46:59;190.73;;;72.60;;
34359;SDS011;20624;55.870;26.506;2023-01-23T10:49:42;235.38;;;84.32;;
34359;SDS011;20624;55.870;26.506;2023-01-23T10:52:27;289.27;;;104.10;;
34359;SDS011;20624;55.870;26.506;2023-01-23T10:55:03;231.65;;;85.28;;
34359;SDS011;20624;55.870;26.506;2023-01-23T10:57:47;134.05;;;38.25;;
34359;SDS011;20624;55.870;26.506;2023-01-23T11:00:35;101.35;;;13.93;;
34359;SDS011;20624;55.870;26.506;2023-01-23T11:03:16;101.43;;;13.50;;
34359;SDS011;20624;55.870;26.506;2023-01-23T11:05:51;59.95;;;7.93;;
34359;SDS011;20624;55.870;26.506;2023-01-23T11:13:43;61.70;;;8.52;;
34359;SDS011;20624;55.870;26.506;2023-01-23T11:16:16;66.13;;;9.02;;
34359;SDS011;20624;55.870;26.506;2023-01-23T11:18:51;55.20;;;7.35;;
34359;SDS011;20624;55.870;26.506;2023-01-23T11:21:23;67.22;;;9.00;;
34359;SDS011;20624;55.870;26.506;2023-01-23T11:24:11;76.00;;;11.90;;
34359;SDS011;20624;55.870;26.506;2023-01-23T11:29:28;81.75;;;12.25;;
34359;SDS011;20624;55.870;26.506;2023-01-23T11:31:59;65.85;;;21.92;;
34359;SDS011;20624;55.870;26.506;2023-01-23T11:34:40;76.88;;;27.77;;
34359;SDS011;20624;55.870;26.506;2023-01-23T11:39:56;111.68;;;47.05;;
34359;SDS011;20624;55.870;26.506;2023-01-23T11:42:33;117.72;;;48.47;;
34359;SDS011;20624;55.870;26.506;2023-01-23T11:45:11;97.25;;;40.88;;
34359;SDS011;20624;55.870;26.506;2023-01-23T11:56:16;52.40;;;7.93;;
34359;SDS011;20624;55.870;26.506;2023-01-23T11:59:15;136.05;;;45.70;;
34359;SDS011;20624;55.870;26.506;2023-01-23T12:04:33;175.95;;;77.28;;
34359;SDS011;20624;55.870;26.506;2023-01-23T12:07:22;76.70;;;39.03;;
34359;SDS011;20624;55.870;26.506;2023-01-23T12:18:00;131.77;;;56.83;;
34359;SDS011;20624;55.870;26.506;2023-01-23T12:23:21;153.30;;;67.25;;
34359;SDS011;20624;55.870;26.506;2023-01-23T12:25:57;129.00;;;53.92;;
34359;SDS011;20624;55.870;26.506;2023-01-23T12:29:07;131.63;;;59.95;;
34359;SDS011;20624;55.870;26.506;2023-01-23T12:37:33;160.75;;;64.20;;
34359;SDS011;20624;55.870;26.506;2023-01-23T12:40:27;126.40;;;59.65;;
34359;SDS011;20624;55.870;26.506;2023-01-23T12:43:10;129.00;;;61.55;;
34359;SDS011;20624;55.870;26.506;2023-01-23T12:45:52;182.75;;;83.15;;
34359;SDS011;20624;55.870;26.506;2023-01-23T12:48:33;272.23;;;115.97;;
34359;SDS011;20624;55.870;26.506;2023-01-23T12:51:20;183.45;;;64.07;;
34359;SDS011;20624;55.870;26.506;2023-01-23T12:54:00;64.13;;;10.25;;
34359;SDS011;20624;55.870;26.506;2023-01-23T12:56:38;93.32;;;15.20;;
34359;SDS011;20624;55.870;26.506;2023-01-23T12:59:18;92.38;;;15.02;;
34359;SDS011;20624;55.870;26.506;2023-01-23T13:01:56;57.90;;;12.75;;
34359;SDS011;20624;55.870;26.506;2023-01-23T13:07:30;74.70;;;24.55;;
34359;SDS011;20624;55.870;26.506;2023-01-23T13:13:22;88.95;;;38.28;;
34359;SDS011;20624;55.870;26.506;2023-01-23T13:16:09;42.25;;;6.00;;
34359;SDS011;20624;55.870;26.506;2023-01-23T13:18:50;61.42;;;8.60;;
34359;SDS011;20624;55.870;26.506;2023-01-23T13:25:01;41.85;;;6.03;;
34359;SDS011;20624;55.870;26.506;2023-01-23T13:27:44;69.97;;;10.00;;
34359;SDS011;20624;55.870;26.506;2023-01-23T13:32:52;57.20;;;8.13;;
34359;SDS011;20624;55.870;26.506;2023-01-23T13:35:50;68.32;;;9.70;;
34359;SDS011;20624;55.870;26.506;2023-01-23T13:47:05;108.82;;;15.25;;
34359;SDS011;20624;55.870;26.506;2023-01-23T13:50:19;87.63;;;12.40;;
34359;SDS011;20624;55.870;26.506;2023-01-23T13:53:17;107.00;;;14.30;;
34359;SDS011;20624;55.870;26.506;2023-01-23T13:56:18;69.72;;;9.73;;
34359;SDS011;20624;55.870;26.506;2023-01-23T13:59:31;53.45;;;10.70;;
34359;SDS011;20624;55.870;26.506;2023-01-23T14:02:23;75.15;;;20.02;;
34359;SDS011;20624;55.870;26.506;2023-01-23T14:05:36;114.45;;;28.92;;
34359;SDS011;20624;55.870;26.506;2023-01-23T14:08:19;130.20;;;51.90;;
34359;SDS011;20624;55.870;26.506;2023-01-23T14:11:02;212.63;;;77.80;;
34359;SDS011;20624;55.870;26.506;2023-01-23T14:13:47;116.32;;;51.80;;
34359;SDS011;20624;55.870;26.506;2023-01-23T14:16:29;124.05;;;43.75;;
34359;SDS011;20624;55.870;26.506;2023-01-23T14:19:20;112.63;;;55.72;;
34359;SDS011;20624;55.870;26.506;2023-01-23T14:22:03;107.53;;;56.08;;
34359;SDS011;20624;55.870;26.506;2023-01-23T14:24:43;138.50;;;60.80;;
34359;SDS011;20624;55.870;26.506;2023-01-23T14:27:20;149.77;;;68.75;;
34359;SDS011;20624;55.870;26.506;2023-01-23T14:29:56;104.47;;;39.53;;
34359;SDS011;20624;55.870;26.506;2023-01-23T14:32:29;178.27;;;72.85;;
34359;SDS011;20624;55.870;26.506;2023-01-23T14:35:00;85.72;;;43.90;;
34359;SDS011;20624;55.870;26.506;2023-01-23T14:37:31;64.68;;;33.92;;
34359;SDS011;20624;55.870;26.506;2023-01-23T14:40:01;125.72;;;55.47;;
34359;SDS011;20624;55.870;26.506;2023-01-23T14:42:40;121.38;;;58.72;;
34359;SDS011;20624;55.870;26.506;2023-01-23T14:45:13;106.55;;;52.72;;
34359;SDS011;20624;55.870;26.506;2023-01-23T14:47:43;83.18;;;38.65;;
34359;SDS011;20624;55.870;26.506;2023-01-23T14:50:23;51.70;;;24.52;;
34359;SDS011;20624;55.870;26.506;2023-01-23T14:55:55;75.68;;;39.95;;
34359;SDS011;20624;55.870;26.506;2023-01-23T15:00:54;124.18;;;57.40;;
34359;SDS011;20624;55.870;26.506;2023-01-23T15:03:39;153.52;;;63.60;;
34359;SDS011;20624;55.870;26.506;2023-01-23T15:06:11;45.67;;;31.17;;
34359;SDS011;20624;55.870;26.506;2023-01-23T15:08:41;63.00;;;28.85;;
34359;SDS011;20624;55.870;26.506;2023-01-23T15:11:09;135.00;;;65.03;;
34359;SDS011;20624;55.870;26.506;2023-01-23T15:13:46;54.38;;;18.85;;
34359;SDS011;20624;55.870;26.506;2023-01-23T15:16:19;32.47;;;4.65;;
34359;SDS011;20624;55.870;26.506;2023-01-23T15:19:34;24.98;;;3.75;;
34359;SDS011;20624;55.870;26.506;2023-01-23T15:21:38;44.42;;;6.28;;
34359;SDS011;20624;55.870;26.506;2023-01-23T15:26:42;62.67;;;8.30;;
34359;SDS011;20624;55.870;26.506;2023-01-23T15:36:51;32.80;;;4.78;;
34359;SDS011;20624;55.870;26.506;2023-01-23T15:39:27;41.42;;;6.82;;
34359;SDS011;20624;55.870;26.506;2023-01-23T15:41:57;60.25;;;39.65;;
34359;SDS011;20624;55.870;26.506;2023-01-23T15:44:29;148.20;;;66.82;;
34359;SDS011;20624;55.870;26.506;2023-01-23T15:46:57;144.02;;;72.15;;
34359;SDS011;20624;55.870;26.506;2023-01-23T15:49:27;238.43;;;99.40;;
34359;SDS011;20624;55.870;26.506;2023-01-23T15:51:56;97.43;;;49.88;;
34359;SDS011;20624;55.870;26.506;2023-01-23T15:54:33;104.47;;;52.20;;
34359;SDS011;20624;55.870;26.506;2023-01-23T15:57:03;208.07;;;76.60;;
34359;SDS011;20624;55.870;26.506;2023-01-23T15:59:34;45.90;;;21.92;;
34359;SDS011;20624;55.870;26.506;2023-01-23T16:02:11;79.78;;;37.53;;
34359;SDS011;20624;55.870;26.506;2023-01-23T16:04:56;169.25;;;81.15;;
34359;SDS011;20624;55.870;26.506;2023-01-23T16:07:30;104.38;;;32.03;;
34359;SDS011;20624;55.870;26.506;2023-01-23T16:12:48;49.78;;;13.80;;
34359;SDS011;20624;55.870;26.506;2023-01-23T16:15:19;38.30;;;8.70;;
34359;SDS011;20624;55.870;26.506;2023-01-23T16:17:49;71.88;;;24.73;;
34359;SDS011;20624;55.870;26.506;2023-01-23T16:20:22;93.03;;;38.47;;
34359;SDS011;20624;55.870;26.506;2023-01-23T16:22:51;44.60;;;16.63;;
34359;SDS011;20624;55.870;26.506;2023-01-23T16:25:28;104.80;;;55.83;;
34359;SDS011;20624;55.870;26.506;2023-01-23T16:30:40;119.28;;;51.72;;
34359;SDS011;20624;55.870;26.506;2023-01-23T16:33:11;91.25;;;49.95;;
34359;SDS011;20624;55.870;26.506;2023-01-23T16:35:39;93.07;;;41.38;;
34359;SDS011;20624;55.870;26.506;2023-01-23T16:38:09;174.93;;;77.38;;
34359;SDS011;20624;55.870;26.506;2023-01-23T16:40:48;67.20;;;32.95;;
34359;SDS011;20624;55.870;26.506;2023-01-23T16:43:19;126.85;;;51.22;;
34359;SDS011;20624;55.870;26.506;2023-01-23T16:45:47;214.02;;;94.70;;
34359;SDS011;20624;55.870;26.506;2023-01-23T16:48:20;103.10;;;49.17;;
34359;SDS011;20624;55.870;26.506;2023-01-23T16:50:58;176.38;;;71.53;;